CONNECT WITH FLYNQY PILOT TRAINING

Newquay Five Day Forecast

This Weather Widget is provided by the Met Office

EGHQ TAF and METAR

METAR

EGHQ 202050Z 11011KT CAVOK 09/07 Q1020

TAF

TAF EGHQ 201658Z 2018/2022 12012KT 9999 SCT025 TEMPO 2018/2022 9000 BKN014